createdAt,value
2022-12-18T00:01:07.250Z,99.63
2022-12-18T00:03:37.493Z,99.61
2022-12-18T00:06:04.479Z,99.71
2022-12-18T00:08:31.034Z,99.58
2022-12-18T00:11:07.118Z,99.58
2022-12-18T00:13:33.949Z,99.58
2022-12-18T00:16:05.520Z,99.95
2022-12-18T00:18:33.235Z,99.99
2022-12-18T00:21:06.524Z,99.99
2022-12-18T00:23:34.615Z,99.99
2022-12-18T00:26:02.705Z,99.99
2022-12-18T00:28:29.288Z,99.95
2022-12-18T00:31:06.339Z,99.99
2022-12-18T00:33:33.239Z,99.99
2022-12-18T00:36:03.996Z,99.99
2022-12-18T00:38:30.751Z,99.99
2022-12-18T00:40:57.560Z,99.99
2022-12-18T00:43:24.196Z,99.99
2022-12-18T00:45:51.218Z,99.99
2022-12-18T00:48:17.925Z,99.99
2022-12-18T00:50:44.478Z,99.99
2022-12-18T00:53:11.393Z,99.99
2022-12-18T00:55:41.525Z,99.99
2022-12-18T00:58:09.190Z,99.99
2022-12-18T01:00:36.603Z,99.99
2022-12-18T01:03:04.228Z,99.99
2022-12-18T01:05:31.281Z,99.85
2022-12-18T01:07:58.287Z,99.48
2022-12-18T01:10:25.716Z,99.41
2022-12-18T01:12:52.514Z,99.54
2022-12-18T01:15:19.570Z,99.75
2022-12-18T01:17:46.205Z,99.96
2022-12-18T01:20:13.791Z,99.89
2022-12-18T01:22:40.694Z,99.58
2022-12-18T01:25:07.659Z,99.54
2022-12-18T01:27:35.290Z,99.53
2022-12-18T01:30:02.031Z,99.77
2022-12-18T01:32:31.526Z,99.93
2022-12-18T01:34:58.207Z,99.79
2022-12-18T01:37:26.462Z,99.87
2022-12-18T01:39:55.275Z,99.78
2022-12-18T01:42:22.427Z,99.77
2022-12-18T01:45:15.060Z,99.88
2022-12-18T01:47:43.765Z,99.75
2022-12-18T01:50:20.637Z,99.98
2022-12-18T01:52:53.226Z,99.99
2022-12-18T01:55:23.097Z,99.77
2022-12-18T01:57:53.442Z,99.63
2022-12-18T02:00:22.715Z,99.55
2022-12-18T02:02:49.898Z,99.67
2022-12-18T02:05:23.733Z,99.66
2022-12-18T02:08:04.640Z,99.50
2022-12-18T02:11:02.505Z,99.45
2022-12-18T02:13:51.516Z,99.27
2022-12-18T02:16:35.620Z,99.22
2022-12-18T02:19:15.549Z,98.84
2022-12-18T02:21:59.179Z,98.75
2022-12-18T02:24:32.581Z,98.65
2022-12-18T02:27:02.858Z,98.58
2022-12-18T02:29:38.849Z,98.10
2022-12-18T02:32:10.663Z,97.93
2022-12-18T02:34:39.710Z,97.71
2022-12-18T02:37:11.753Z,97.66
2022-12-18T02:39:41.295Z,97.52
2022-12-18T02:42:09.109Z,97.30
2022-12-18T02:44:45.877Z,97.04
2022-12-18T02:47:22.734Z,97.13
2022-12-18T02:49:58.447Z,97.03
2022-12-18T02:52:49.763Z,96.89
2022-12-18T02:55:47.532Z,96.82
2022-12-18T02:58:28.026Z,96.41
2022-12-18T03:01:21.141Z,96.15
2022-12-18T03:03:58.705Z,95.72
2022-12-18T03:06:30.468Z,95.41
2022-12-18T03:09:04.690Z,95.18
2022-12-18T03:11:52.557Z,95.09
2022-12-18T03:14:22.311Z,95.00
2022-12-18T03:16:52.406Z,94.88
2022-12-18T03:19:23.469Z,94.84
2022-12-18T03:21:56.765Z,94.87
2022-12-18T03:24:25.321Z,94.89
2022-12-18T03:26:56.565Z,94.77
2022-12-18T03:29:28.240Z,94.84
2022-12-18T03:31:59.955Z,94.82
2022-12-18T03:34:31.887Z,94.82
2022-12-18T03:36:58.647Z,94.80
2022-12-18T03:39:26.358Z,94.75
2022-12-18T03:42:16.618Z,94.89
2022-12-18T03:45:04.207Z,95.04
2022-12-18T03:47:40.543Z,94.96
2022-12-18T03:50:15.835Z,94.87
2022-12-18T03:52:55.923Z,94.65
2022-12-18T03:55:24.069Z,94.50
2022-12-18T03:57:52.342Z,94.51
2022-12-18T04:00:19.901Z,94.64
2022-12-18T04:02:51.834Z,94.54
2022-12-18T04:05:20.048Z,94.51
2022-12-18T04:07:50.239Z,94.60
2022-12-18T04:10:17.721Z,94.38
2022-12-18T04:12:44.907Z,94.29
2022-12-18T04:15:13.119Z,94.32
2022-12-18T04:17:40.923Z,93.91
2022-12-18T04:20:07.915Z,94.13
2022-12-18T04:22:34.436Z,94.32
2022-12-18T04:25:01.237Z,94.40
2022-12-18T04:27:27.845Z,94.49
2022-12-18T04:29:54.387Z,94.59
2022-12-18T04:32:21.020Z,94.69
2022-12-18T04:34:47.620Z,94.66
2022-12-18T04:37:14.500Z,94.74
2022-12-18T04:39:41.039Z,94.73
2022-12-18T04:42:07.569Z,94.59
2022-12-18T04:44:34.119Z,94.62
2022-12-18T04:47:00.686Z,94.69
2022-12-18T04:49:27.291Z,94.63
2022-12-18T04:51:54.094Z,94.17
2022-12-18T04:54:21.099Z,94.09
2022-12-18T04:56:48.083Z,94.12
2022-12-18T04:59:14.764Z,94.15
2022-12-18T05:01:41.417Z,93.69
2022-12-18T05:04:08.399Z,93.19
2022-12-18T05:06:35.014Z,93.27
2022-12-18T05:09:01.811Z,93.28
2022-12-18T05:11:28.476Z,93.07
2022-12-18T05:13:57.913Z,93.15
2022-12-18T05:16:24.525Z,93.36
2022-12-18T05:18:51.139Z,93.54
2022-12-18T05:21:17.648Z,94.09
2022-12-18T05:23:44.420Z,94.04
2022-12-18T05:26:17.117Z,93.80
2022-12-18T05:28:44.725Z,93.48
2022-12-18T05:31:11.343Z,93.27
2022-12-18T05:33:38.742Z,92.88
2022-12-18T05:36:08.468Z,92.58
2022-12-18T05:38:37.921Z,92.73
2022-12-18T05:41:05.254Z,92.60
2022-12-18T05:43:32.027Z,92.69
2022-12-18T05:45:58.576Z,92.66
2022-12-18T05:48:25.109Z,92.75
2022-12-18T05:50:52.167Z,92.59
2022-12-18T05:53:21.103Z,92.51
2022-12-18T05:55:48.472Z,92.62
2022-12-18T05:58:15.582Z,92.58
2022-12-18T06:00:45.096Z,92.57
2022-12-18T06:03:12.958Z,92.60
2022-12-18T06:05:42.561Z,92.64
2022-12-18T06:08:09.768Z,92.60
2022-12-18T06:10:36.420Z,92.41
2022-12-18T06:13:03.100Z,92.50
2022-12-18T06:15:29.722Z,92.82
2022-12-18T06:17:56.292Z,92.89
2022-12-18T06:20:23.044Z,92.97
2022-12-18T06:22:49.639Z,92.93
2022-12-18T06:25:16.373Z,92.89
2022-12-18T06:27:43.066Z,93.11
2022-12-18T06:30:10.541Z,93.27
2022-12-18T06:32:38.280Z,93.47
2022-12-18T06:35:05.238Z,93.66
2022-12-18T06:37:32.538Z,93.46
2022-12-18T06:39:59.240Z,93.40
2022-12-18T06:42:25.959Z,93.45
2022-12-18T06:44:52.768Z,93.40
2022-12-18T06:47:19.706Z,93.34
2022-12-18T06:49:46.238Z,93.37
2022-12-18T06:52:13.014Z,93.22
2022-12-18T06:54:39.544Z,93.16
2022-12-18T06:57:06.122Z,93.24
2022-12-18T06:59:32.619Z,93.31
2022-12-18T07:01:59.298Z,93.51
2022-12-18T07:04:32.998Z,93.53
2022-12-18T07:06:59.566Z,93.56
2022-12-18T07:09:26.217Z,93.67
2022-12-18T07:11:53.530Z,93.74
2022-12-18T07:14:20.293Z,93.63
2022-12-18T07:16:46.909Z,93.57
2022-12-18T07:19:13.466Z,93.82
2022-12-18T07:21:40.169Z,93.86
2022-12-18T07:24:07.428Z,93.69
2022-12-18T07:26:33.973Z,93.48
2022-12-18T07:29:00.782Z,93.45
2022-12-18T07:31:28.627Z,93.48
2022-12-18T07:33:55.479Z,93.61
2022-12-18T07:36:22.106Z,93.74
2022-12-18T07:38:49.944Z,93.67
2022-12-18T07:41:16.980Z,93.41
2022-12-18T07:43:43.991Z,93.27
2022-12-18T07:46:13.544Z,93.19
2022-12-18T07:48:41.294Z,93.16
2022-12-18T07:51:08.658Z,92.98
2022-12-18T07:53:37.159Z,92.69
2022-12-18T07:58:54.494Z,92.78
2022-12-18T08:01:21.269Z,92.93
2022-12-18T08:03:48.289Z,92.38
2022-12-18T08:06:15.465Z,92.11
2022-12-18T08:08:43.213Z,91.95
2022-12-18T08:11:09.977Z,91.89
2022-12-18T08:13:36.767Z,91.62
2022-12-18T08:16:06.894Z,90.92
2022-12-18T08:18:34.894Z,90.70
2022-12-18T08:21:16.262Z,90.93
2022-12-18T08:23:44.073Z,90.77
2022-12-18T08:26:12.033Z,90.82
2022-12-18T08:28:38.742Z,90.19
2022-12-18T08:31:05.639Z,90.32
2022-12-18T08:33:33.029Z,90.39
2022-12-18T08:36:01.443Z,90.11
2022-12-18T08:38:28.013Z,90.15
2022-12-18T08:41:06.880Z,90.26
2022-12-18T08:43:52.065Z,90.08
2022-12-18T08:46:20.025Z,89.71
2022-12-18T08:48:47.011Z,89.65
2022-12-18T08:51:13.807Z,89.36
2022-12-18T08:53:40.761Z,89.06
2022-12-18T08:56:08.464Z,89.10
2022-12-18T08:58:35.029Z,89.20
2022-12-18T09:01:06.151Z,89.28
2022-12-18T09:03:33.674Z,89.24
2022-12-18T09:06:00.574Z,88.97
2022-12-18T09:08:27.889Z,89.07
2022-12-18T09:10:55.220Z,88.33
2022-12-18T09:13:22.138Z,88.41
2022-12-18T09:15:51.413Z,88.35
2022-12-18T09:18:19.428Z,88.50
2022-12-18T09:20:46.483Z,87.90
2022-12-18T09:23:13.436Z,88.05
2022-12-18T09:25:40.601Z,87.80
2022-12-18T09:28:11.784Z,87.49
2022-12-18T09:30:39.901Z,87.81
2022-12-18T09:33:06.684Z,87.44
2022-12-18T09:35:41.833Z,87.71
2022-12-18T09:38:12.368Z,87.30
2022-12-18T09:40:56.706Z,87.65
2022-12-18T09:43:52.220Z,86.81
2022-12-18T09:46:27.422Z,86.89
2022-12-18T09:48:57.721Z,87.08
2022-12-18T09:51:30.892Z,87.02
2022-12-18T09:54:05.834Z,87.12
2022-12-18T09:56:37.386Z,86.80
2022-12-18T09:59:05.100Z,86.74
2022-12-18T10:01:41.548Z,87.08
2022-12-18T10:04:10.990Z,86.57
2022-12-18T10:06:50.099Z,86.89
2022-12-18T10:10:02.055Z,86.64
2022-12-18T10:12:37.925Z,86.27
2022-12-18T10:15:38.672Z,85.99
2022-12-18T10:18:30.393Z,86.17
2022-12-18T10:21:04.156Z,86.21
2022-12-18T10:23:42.499Z,85.94
2022-12-18T10:26:15.556Z,86.27
2022-12-18T10:28:43.538Z,86.02
2022-12-18T10:31:24.292Z,86.27
2022-12-18T10:33:52.312Z,86.27
2022-12-18T10:36:18.818Z,85.74
2022-12-18T10:38:45.398Z,85.48
2022-12-18T10:41:33.328Z,85.04
2022-12-18T10:44:22.363Z,85.76
2022-12-18T10:46:57.116Z,86.29
2022-12-18T10:49:27.952Z,85.86
2022-12-18T10:52:13.200Z,85.65
2022-12-18T10:54:40.030Z,85.63
2022-12-18T10:57:31.012Z,85.63
2022-12-18T10:59:59.782Z,85.40
2022-12-18T11:02:36.542Z,84.54
2022-12-18T11:05:23.319Z,85.06
2022-12-18T11:07:51.499Z,84.99
2022-12-18T11:10:19.760Z,84.34
2022-12-18T11:12:46.654Z,84.18
2022-12-18T11:15:21.016Z,83.77
2022-12-18T11:17:50.981Z,83.89
2022-12-18T11:20:35.230Z,84.52
2022-12-18T11:23:11.379Z,83.98
2022-12-18T11:25:38.142Z,83.99
2022-12-18T11:28:26.039Z,83.77
2022-12-18T11:31:13.442Z,84.19
2022-12-18T11:36:55.718Z,82.81
2022-12-18T11:39:41.685Z,83.65
2022-12-18T11:42:32.143Z,83.80
2022-12-18T11:45:03.467Z,83.25
2022-12-18T11:48:18.400Z,83.63
2022-12-18T11:50:52.161Z,83.41
2022-12-18T11:53:19.975Z,83.38
2022-12-18T11:56:03.362Z,83.78
2022-12-18T11:58:44.991Z,83.62
2022-12-18T12:01:17.873Z,83.91
2022-12-18T12:03:59.373Z,84.23
2022-12-18T12:06:37.944Z,84.39
2022-12-18T12:09:23.100Z,84.66
2022-12-18T12:12:12.703Z,84.30
2022-12-18T12:15:03.761Z,84.64
2022-12-18T12:17:30.290Z,84.05
2022-12-18T12:20:00.645Z,84.11
2022-12-18T12:22:46.147Z,84.36
2022-12-18T12:25:22.322Z,83.93
2022-12-18T12:27:54.674Z,83.52
2022-12-18T12:30:31.074Z,83.87
2022-12-18T12:33:28.755Z,83.83
2022-12-18T12:36:36.499Z,83.67
2022-12-18T12:39:09.110Z,84.08
2022-12-18T12:41:58.227Z,83.62
2022-12-18T12:44:43.285Z,83.76
2022-12-18T12:47:31.687Z,83.75
2022-12-18T12:50:02.341Z,84.05
2022-12-18T12:52:42.838Z,84.32
2022-12-18T12:55:24.609Z,84.17
2022-12-18T12:58:07.393Z,83.74
2022-12-18T13:00:50.223Z,84.19
2022-12-18T13:03:36.360Z,83.54
2022-12-18T13:06:20.471Z,83.56
2022-12-18T13:08:59.969Z,83.95
2022-12-18T13:12:00.000Z,83.56
2022-12-18T13:14:34.323Z,83.49
2022-12-18T13:17:22.319Z,83.53
2022-12-18T13:20:03.459Z,83.67
2022-12-18T13:22:37.324Z,83.77
2022-12-18T13:25:32.861Z,83.50
2022-12-18T13:28:16.817Z,83.49
2022-12-18T13:30:49.192Z,83.38
2022-12-18T13:33:21.319Z,83.77
2022-12-18T13:35:47.941Z,84.09
2022-12-18T13:38:32.828Z,83.99
2022-12-18T13:41:01.824Z,83.11
2022-12-18T13:43:28.610Z,83.73
2022-12-18T13:46:21.871Z,83.72
2022-12-18T13:49:13.980Z,84.29
2022-12-18T13:51:52.673Z,84.42
2022-12-18T13:54:40.553Z,83.65
2022-12-18T13:57:33.672Z,84.14
2022-12-18T14:00:18.291Z,83.73
2022-12-18T14:02:46.640Z,83.56
2022-12-18T14:05:35.181Z,83.43
2022-12-18T14:08:11.037Z,83.86
2022-12-18T14:10:48.628Z,83.64
2022-12-18T14:13:30.111Z,84.00
2022-12-18T14:15:57.194Z,83.77
2022-12-18T14:18:49.650Z,83.90
2022-12-18T14:21:27.286Z,83.91
2022-12-18T14:24:19.491Z,83.95
2022-12-18T14:26:47.709Z,83.74
2022-12-18T14:29:30.074Z,83.50
2022-12-18T14:32:18.279Z,83.62
2022-12-18T14:34:50.174Z,83.91
2022-12-18T14:37:21.790Z,83.88
2022-12-18T14:39:59.192Z,84.34
2022-12-18T14:42:29.586Z,84.12
2022-12-18T14:45:39.175Z,84.23
2022-12-18T14:48:37.427Z,84.13
2022-12-18T14:51:26.022Z,84.48
2022-12-18T14:54:10.821Z,84.32
2022-12-18T14:56:44.345Z,84.22
2022-12-18T14:59:26.273Z,84.59
2022-12-18T15:02:05.906Z,84.35
2022-12-18T15:04:36.232Z,83.96
2022-12-18T15:07:13.469Z,83.96
2022-12-18T15:09:42.703Z,84.24
2022-12-18T15:12:39.329Z,83.85
2022-12-18T15:15:26.713Z,84.24
2022-12-18T15:18:00.257Z,83.65
2022-12-18T15:20:26.861Z,83.56
2022-12-18T15:22:53.682Z,84.06
2022-12-18T15:25:35.195Z,83.59
2022-12-18T15:28:01.764Z,83.72
2022-12-18T15:30:28.326Z,83.47
2022-12-18T15:33:23.231Z,83.67
2022-12-18T15:35:57.820Z,83.93
2022-12-18T15:38:24.445Z,83.70
2022-12-18T15:40:50.961Z,83.38
2022-12-18T15:43:36.215Z,83.68
2022-12-18T15:46:04.142Z,83.55
2022-12-18T15:48:32.868Z,83.36
2022-12-18T15:50:59.642Z,83.50
2022-12-18T15:53:30.094Z,83.22
2022-12-18T15:56:15.446Z,82.58
2022-12-18T15:58:43.158Z,83.16
2022-12-18T16:01:11.127Z,83.07
2022-12-18T16:03:37.897Z,83.32
2022-12-18T16:06:04.775Z,83.10
2022-12-18T16:08:31.911Z,83.15
2022-12-18T16:10:59.305Z,83.20
2022-12-18T16:13:25.837Z,82.90
2022-12-18T16:15:52.547Z,82.88
2022-12-18T16:18:19.209Z,82.66
2022-12-18T16:20:46.178Z,83.01
2022-12-18T16:23:12.698Z,83.08
2022-12-18T16:25:39.620Z,83.11
2022-12-18T16:28:06.166Z,83.11
2022-12-18T16:30:38.186Z,83.12
2022-12-18T16:33:05.556Z,83.28
2022-12-18T16:35:34.015Z,83.18
2022-12-18T16:38:00.629Z,83.27
2022-12-18T16:40:27.268Z,83.42
2022-12-18T16:42:53.776Z,83.38
2022-12-18T16:45:20.434Z,83.32
2022-12-18T16:47:47.031Z,83.44
2022-12-18T16:50:13.734Z,83.51
2022-12-18T16:52:40.640Z,83.67
2022-12-18T16:55:08.019Z,83.55
2022-12-18T16:57:34.572Z,83.54
2022-12-18T17:00:05.202Z,83.46
2022-12-18T17:02:32.683Z,83.72
2022-12-18T17:04:59.741Z,83.38
2022-12-18T17:07:27.025Z,83.21
2022-12-18T17:09:54.381Z,83.82
2022-12-18T17:12:21.283Z,83.54
2022-12-18T17:14:48.424Z,83.51
2022-12-18T17:17:23.855Z,83.95
2022-12-18T17:19:52.168Z,84.16
2022-12-18T17:22:19.256Z,83.73
2022-12-18T17:24:46.823Z,83.73
2022-12-18T17:27:13.366Z,83.60
2022-12-18T17:29:45.400Z,83.82
2022-12-18T17:32:14.200Z,84.06
2022-12-18T17:34:41.275Z,83.80
2022-12-18T17:37:08.354Z,83.97
2022-12-18T17:39:34.881Z,83.75
2022-12-18T17:42:01.545Z,83.28
2022-12-18T17:44:28.211Z,83.77
2022-12-18T17:46:55.051Z,83.96
2022-12-18T17:49:21.832Z,83.82
2022-12-18T17:51:49.021Z,83.58
2022-12-18T17:54:15.681Z,83.57
2022-12-18T17:56:42.256Z,83.51
2022-12-18T17:59:09.477Z,83.31
2022-12-18T18:01:42.365Z,83.44
2022-12-18T18:04:11.130Z,83.42
2022-12-18T18:06:39.156Z,83.61
2022-12-18T18:09:10.304Z,83.44
2022-12-18T18:12:02.375Z,82.86
2022-12-18T18:14:29.112Z,82.59
2022-12-18T18:16:56.247Z,82.73
2022-12-18T18:19:25.306Z,82.68
2022-12-18T18:21:53.653Z,82.80
2022-12-18T18:24:25.963Z,82.69
2022-12-18T18:26:52.617Z,82.27
2022-12-18T18:29:22.234Z,82.00
2022-12-18T18:31:49.149Z,81.99
2022-12-18T18:34:25.056Z,82.01
2022-12-18T18:36:52.451Z,82.12
2022-12-18T18:39:19.631Z,81.73
2022-12-18T18:41:48.212Z,81.62
2022-12-18T18:44:19.019Z,80.69
2022-12-18T18:46:45.740Z,80.61
2022-12-18T18:49:13.772Z,81.10
2022-12-18T18:51:41.570Z,81.55
2022-12-18T18:54:08.331Z,81.88
2022-12-18T18:56:56.586Z,82.66
2022-12-18T18:59:21.518Z,83.16
2022-12-18T19:01:56.273Z,84.10
2022-12-18T19:04:22.907Z,85.31
2022-12-18T19:06:49.662Z,84.89
2022-12-18T19:09:16.151Z,85.54
2022-12-18T19:12:01.753Z,85.74
2022-12-18T19:14:28.325Z,86.65
2022-12-18T19:16:54.915Z,86.80
2022-12-18T19:19:22.349Z,86.68
2022-12-18T19:21:50.031Z,87.68
2022-12-18T19:24:16.638Z,87.78
2022-12-18T19:26:43.705Z,88.08
2022-12-18T19:29:12.113Z,87.60
2022-12-18T19:31:38.830Z,88.20
2022-12-18T19:34:07.037Z,88.07
2022-12-18T19:36:36.110Z,88.34
2022-12-18T19:39:11.587Z,88.88
2022-12-18T19:41:38.314Z,88.76
2022-12-18T19:44:08.042Z,89.14
2022-12-18T19:46:35.899Z,89.99
2022-12-18T19:49:02.803Z,89.45
2022-12-18T19:51:31.047Z,89.29
2022-12-18T19:54:01.414Z,90.04
2022-12-18T19:56:32.240Z,90.13
2022-12-18T19:58:59.637Z,90.48
2022-12-18T20:01:27.794Z,89.90
2022-12-18T20:03:55.725Z,90.17
2022-12-18T20:06:36.409Z,90.59
2022-12-18T20:09:07.386Z,91.40
2022-12-18T20:11:40.184Z,91.60
2022-12-18T20:14:12.212Z,91.70
2022-12-18T20:16:38.961Z,91.53
2022-12-18T20:19:06.357Z,92.00
2022-12-18T20:21:33.080Z,92.56
2022-12-18T20:24:01.184Z,92.97
2022-12-18T20:26:27.747Z,93.10
2022-12-18T20:28:54.784Z,92.99
2022-12-18T20:31:21.624Z,93.51
2022-12-18T20:33:49.945Z,93.85
2022-12-18T20:36:23.422Z,94.29
2022-12-18T20:38:55.771Z,94.36
2022-12-18T20:41:25.043Z,94.77
2022-12-18T20:43:51.665Z,94.97
2022-12-18T20:46:18.768Z,95.15
2022-12-18T20:48:45.802Z,95.12
2022-12-18T20:51:15.583Z,95.37
2022-12-18T20:53:42.552Z,95.62
2022-12-18T20:56:20.350Z,95.95
2022-12-18T20:58:49.080Z,95.98
2022-12-18T21:01:18.401Z,96.02
2022-12-18T21:03:46.115Z,96.05
2022-12-18T21:06:14.241Z,96.21
2022-12-18T21:08:41.016Z,96.22
2022-12-18T21:11:45.621Z,96.48
2022-12-18T21:14:14.895Z,96.65
2022-12-18T21:16:43.977Z,96.63
2022-12-18T21:19:16.430Z,96.91
2022-12-18T21:21:43.927Z,96.94
2022-12-18T21:24:11.042Z,97.07
2022-12-18T21:26:44.956Z,97.03
2022-12-18T21:29:15.204Z,97.05
2022-12-18T21:31:42.936Z,97.28
2022-12-18T21:34:16.600Z,97.41
2022-12-18T21:36:44.210Z,97.63
2022-12-18T21:39:10.791Z,97.81
2022-12-18T21:41:56.060Z,97.92
2022-12-18T21:44:23.176Z,98.02
2022-12-18T21:46:55.841Z,98.04
2022-12-18T21:49:27.134Z,97.98
2022-12-18T21:51:55.971Z,97.99
2022-12-18T21:54:23.300Z,98.13
2022-12-18T21:56:58.200Z,98.06
2022-12-18T21:59:35.095Z,98.02
2022-12-18T22:02:13.862Z,98.01
2022-12-18T22:04:41.421Z,97.95
2022-12-18T22:07:09.796Z,98.06
2022-12-18T22:09:37.931Z,98.02
2022-12-18T22:12:04.810Z,97.95
2022-12-18T22:14:32.140Z,98.15
2022-12-18T22:16:58.823Z,98.12
2022-12-18T22:19:26.302Z,98.20
2022-12-18T22:21:53.432Z,98.35
2022-12-18T22:24:29.179Z,98.20
2022-12-18T22:27:02.005Z,98.20
2022-12-18T22:29:48.027Z,98.23
2022-12-18T22:32:17.810Z,97.97
2022-12-18T22:35:01.701Z,98.19
2022-12-18T22:37:31.725Z,98.17
2022-12-18T22:39:58.265Z,98.13
2022-12-18T22:42:25.460Z,98.06
2022-12-18T22:44:51.997Z,97.99
2022-12-18T22:47:18.619Z,98.00
